This is the latest recevied weather packets stored in our database for station/object N4QD-13. If no packets are shown the sender has not sent any weather packets the latest 1 day(s).
| Time | Temp. | Humidity | Pressure | Rain* | Wind** | Luminosity | Snow |
|---|---|---|---|---|---|---|---|
| 1836274685 | 16.67° C | 97% | 1021 hPa | 0 mm | 0 m/s | 0 W/m² | - |
| 1836274538 | 16.67° C | 97% | 1020.9 hPa | 0 mm | 0 m/s | 0 W/m² | - |
| 1836274383 | 16.67° C | 97% | 1020.9 hPa | 0 mm | 0 m/s | 0 W/m² | - |
| 1836274236 | 16.67° C | 98% | 1021 hPa | 0 mm | 0 m/s | 0 W/m² | - |
| 1836274081 | 16.67° C | 97% | 1020.7 hPa | 0 mm | 0 m/s | 0 W/m² | - |
| 1778032938 | 22.22° C | 46% | 1012.6 hPa | 0 mm | 1.34 m/s, 334° | 0 W/m² | - |
| 1778032635 | 22.22° C | 46% | 1012.4 hPa | 0 mm | 1.79 m/s, 18° | 0 W/m² | - |
| 1778032333 | 22.22° C | 46% | 1012.5 hPa | 0 mm | 1.34 m/s, 286° | 0 W/m² | - |
| 1778032029 | 22.22° C | 47% | 1012.4 hPa | 0 mm | 1.34 m/s, 41° | 0 W/m² | - |
| 1778031725 | 22.22° C | 46% | 1012.4 hPa | 0 mm | 0.89 m/s, 40° | 0 W/m² | - |
| 1778031423 | 21.67° C | 47% | 1012.3 hPa | 0 mm | 1.79 m/s, 293° | 0 W/m² | - |
| 1778031120 | 21.67° C | 47% | 1012.3 hPa | 0 mm | 1.34 m/s, 321° | 0 W/m² | - |
| 1778030816 | 21.67° C | 47% | 1012.2 hPa | 0 mm | 1.79 m/s, 38° | 0 W/m² | - |
| 1778030513 | 21.67° C | 47% | 1012.4 hPa | 0 mm | 0.89 m/s, 277° | 0 W/m² | - |
| 1778030211 | 21.67° C | 46% | 1012.3 hPa | 0 mm | 0.89 m/s, 90° | 0 W/m² | - |
| 1778029907 | 21.67° C | 45% | 1012.3 hPa | 0 mm | 0.89 m/s, 26° | 0 W/m² | - |
| 1778029605 | 22.22° C | 44% | 1012.2 hPa | 0 mm | 1.34 m/s, 80° | 0 W/m² | - |
| 1778029302 | 22.22° C | 44% | 1012.1 hPa | 0 mm | 1.34 m/s, 340° | 0 W/m² | - |
| 1778028999 | 22.22° C | 44% | 1012 hPa | 0 mm | 1.79 m/s, 359° | 0 W/m² | - |
| 1778028696 | 21.67° C | 44% | 1012.2 hPa | 0 mm | 0.45 m/s, 2° | 0 W/m² | - |
| 1778028392 | 22.22° C | 44% | 1011.8 hPa | 0 mm | 1.34 m/s, 34° | 0 W/m² | - |
| 1778028090 | 22.22° C | 43% | 1011.9 hPa | 0 mm | 1.34 m/s, 35° | 0 W/m² | - |
| 1778027786 | 22.22° C | 43% | 1012 hPa | 0 mm | 0.45 m/s, 72° | 0 W/m² | - |
| 1778027482 | 22.78° C | 43% | 1012 hPa | 0 mm | 1.34 m/s, 299° | 0 W/m² | - |
| 1778027178 | 22.78° C | 42% | 1012.1 hPa | 0 mm | 2.24 m/s, 306° | 0 W/m² | - |
* Rain latest hour (hover to see other rain measurements)
** Current wind speed in m/s (hover to see current wind gust speed)